Weather reports worldwide

Advertisment
Navacerrada, Spain (8215): temperature & dewpoint: 14.06.2019 06:00:00 - 20.06.2019 06:00:00 (CEST)Navacerrada, Spain (8215): wind speed: 14.06.2019 06:00:00 - 20.06.2019 06:00:00 (CEST)Navacerrada, Spain (8215): wind direction: 14.06.2019 06:00:00 - 20.06.2019 06:00:00 (CEST)Navacerrada, Spain (8215): visibility: 14.06.2019 06:00:00 - 20.06.2019 06:00:00 (CEST)Navacerrada, Spain (8215): precipitation: 14.06.2019 06:00:00 - 20.06.2019 06:00:00 (CEST)
Date & Time tt [°C] td [°C] ff [km/h] ff [kn] dd vv [km] rr [mm]
20.06.2019 06:00:00 - - - - - - -
20.06.2019 05:00:00 8,7 7,1 4 2 NNW 20 -
20.06.2019 04:00:00 9,1 7,2 5 3 NW 20 0,0
20.06.2019 03:00:00 9,1 7,0 8 4 NW 20 0,0
20.06.2019 02:00:00 9,2 7,1 8 4 NNW 20 -
20.06.2019 01:00:00 9,4 7,0 11 6 N 20 0,0
20.06.2019 00:00:00 9,8 6,9 11 6 N 20 0,0
19.06.2019 23:00:00 10,3 6,4 9 5 N 20 -
19.06.2019 22:00:00 11,2 6,3 13 7 NNW 20 0,0
19.06.2019 21:00:00 12,9 6,9 9 5 N 20 0,0
19.06.2019 20:00:00 13,9 6,7 8 4 NW 30 -
19.06.2019 19:00:00 14,7 6,3 5 3 W 19 0,0
19.06.2019 18:00:00 15,5 7,5 5 3 WSW 20 0,0
19.06.2019 17:00:00 16,2 7,4 11 6 SW 30 -
19.06.2019 16:00:00 19,2 8,2 15 8 S 20 0,0
19.06.2019 15:00:00 18,9 7,0 15 8 SSW 20 0,0
19.06.2019 14:00:00 16,8 7,2 13 7 SSW 30 -
19.06.2019 13:00:00 14,6 7,4 4 2 W 20 0,0
19.06.2019 12:00:00 12,5 7,4 4 2 WNW 20 0,0
19.06.2019 11:00:00 12,2 7,7 5 3 NW 30 -
19.06.2019 10:00:00 14,7 7,7 8 4 SSE 19 0,0
19.06.2019 09:00:00 12,9 7,3 4 2 ENE 19 0,0
19.06.2019 08:00:00 9,4 7,3 4 2 N 5 -
19.06.2019 07:00:00 7,4 6,7 4 2 N 6 0,0
19.06.2019 06:00:00 7,5 6,3 8 4 WSW 11 0,0
19.06.2019 05:00:00 9,2 5,6 11 6 W 20 -
19.06.2019 04:00:00 9,8 5,4 24 13 SW 20 0,0
19.06.2019 03:00:00 10,3 5,7 26 14 SW 20 0,0
19.06.2019 02:00:00 10,6 4,9 22 12 SW 20 -
19.06.2019 01:00:00 11,1 4,5 22 12 WSW 20 0,0
19.06.2019 00:00:00 11,1 4,3 22 12 WSW 20 0,0
18.06.2019 23:00:00 11,3 5,2 24 13 SW 20 -
18.06.2019 22:00:00 12,1 4,6 22 12 SW 20 0,0
18.06.2019 21:00:00 13,9 3,4 24 13 SSW 20 0,0
18.06.2019 20:00:00 16,2 0,7 29 16 SW 25 -
18.06.2019 19:00:00 17,4 -2,9 26 14 SW 20 0,0
18.06.2019 18:00:00 18,4 -2,6 24 13 SSW 20 0,0
18.06.2019 17:00:00 18,1 -7,3 29 16 SW 40 -
18.06.2019 16:00:00 18,0 -6,7 26 14 SSW 20 0,0
18.06.2019 15:00:00 17,6 -6,3 28 15 SSW 20 0,0
18.06.2019 14:00:00 17,3 -2,9 28 15 S 40 -
18.06.2019 13:00:00 16,4 -2,7 24 13 S 20 0,0
18.06.2019 12:00:00 15,6 -3,4 26 14 SSW 20 0,0
18.06.2019 11:00:00 14,6 -3,7 18 10 SSW 30 -
18.06.2019 10:00:00 13,2 -2,3 24 13 SSW 20 0,0
18.06.2019 09:00:00 12,7 -1,3 26 14 S 20 0,0
18.06.2019 08:00:00 11,3 -2,1 21 11 SSW 20 -
18.06.2019 07:00:00 11,5 -3,5 21 11 SSW 20 0,0
18.06.2019 06:00:00 12,2 -3,2 13 7 SSW 20 0,0
18.06.2019 05:00:00 12,9 -3,8 21 11 S 20 -
18.06.2019 04:00:00 13,5 -2,1 18 10 SSE 20 0,0
18.06.2019 03:00:00 14,1 -2,4 15 8 S 20 0,0
18.06.2019 02:00:00 13,1 -1,3 4 2 W 20 -
18.06.2019 01:00:00 13,5 -0,9 4 2 N 20 0,0
18.06.2019 00:00:00 13,7 -1,1 4 2 NNW 20 0,0
17.06.2019 23:00:00 14,3 -0,2 5 3 NNE 20 -
17.06.2019 22:00:00 15,5 -1,6 15 8 WSW 20 0,0
17.06.2019 21:00:00 16,5 -1,6 13 7 SSW 20 0,0
17.06.2019 20:00:00 17,3 -1,4 21 11 SSW 20 -
17.06.2019 19:00:00 17,6 -2,2 22 12 SW 20 0,0
17.06.2019 18:00:00 19,5 -1,6 26 14 SW 20 0,0
17.06.2019 17:00:00 19,0 -2,6 31 17 SW 30 -
17.06.2019 16:00:00 19,6 -1,5 26 14 SSW 20 0,0
17.06.2019 15:00:00 19,4 -1,2 24 13 SSW 20 0,0
17.06.2019 14:00:00 19,1 -0,3 15 8 SSW 30 -
17.06.2019 13:00:00 18,1 -0,2 22 12 SSW 19 0,0
17.06.2019 12:00:00 17,4 -0,4 16 9 SSW 20 0,0
17.06.2019 11:00:00 16,4 -0,8 16 9 SSW 30 -
17.06.2019 10:00:00 15,6 -0,6 11 6 SW 20 0,0
17.06.2019 09:00:00 14,1 -1,2 11 6 SSW 20 0,0
17.06.2019 08:00:00 11,8 -2,4 9 5 WSW 20 -
17.06.2019 07:00:00 11,1 -2,7 13 7 WSW 20 0,0
17.06.2019 06:00:00 11,3 -3,3 13 7 WSW 20 0,0
17.06.2019 05:00:00 11,7 -3,7 15 8 WSW 19 -
17.06.2019 04:00:00 11,6 -3,4 11 6 WSW 20 0,0
17.06.2019 03:00:00 12,0 -1,9 4 2 W 20 0,0
17.06.2019 02:00:00 12,0 -1,5 5 3 NE 20 -
17.06.2019 01:00:00 11,8 -2,4 8 4 NE 20 0,0
17.06.2019 00:00:00 12,6 -2,9 5 3 NW 20 0,0
16.06.2019 23:00:00 12,7 -4,5 13 7 SSW 20 -
16.06.2019 22:00:00 12,9 -3,8 16 9 S 20 0,0
16.06.2019 21:00:00 15,9 -3,6 16 9 SSW 20 0,0
16.06.2019 20:00:00 16,6 -2,0 11 6 SW 30 -
16.06.2019 19:00:00 17,4 -1,8 11 6 SW 20 0,0
16.06.2019 18:00:00 18,2 -2,2 15 8 SSW 20 0,0
16.06.2019 17:00:00 19,5 -1,6 22 12 S 20 -
16.06.2019 16:00:00 18,9 -1,0 15 8 S 20 0,0
16.06.2019 15:00:00 19,5 1,0 11 6 S 20 0,0
16.06.2019 14:00:00 19,1 0,6 11 6 SSE 30 -
16.06.2019 13:00:00 17,5 -0,3 15 8 S 20 0,0
16.06.2019 12:00:00 16,9 0,5 16 9 S 20 0,0
16.06.2019 11:00:00 15,4 -0,8 18 10 S 30 -
16.06.2019 10:00:00 14,2 -0,7 18 10 S 20 0,0
16.06.2019 09:00:00 12,4 -1,9 18 10 SSE 20 0,0
16.06.2019 08:00:00 10,4 -3,0 24 13 SSE 20 -
16.06.2019 07:00:00 9,0 -4,2 21 11 SSE 20 0,0
16.06.2019 06:00:00 8,7 -3,5 18 10 SSE 20 0,0
16.06.2019 05:00:00 9,0 -2,6 22 12 S 20 -
16.06.2019 04:00:00 9,2 -2,1 15 8 SSE 20 0,0
16.06.2019 03:00:00 9,0 -1,7 5 3 S 20 0,0
16.06.2019 02:00:00 9,2 -2,1 5 3 S 20 -
16.06.2019 01:00:00 9,3 -4,0 2 1 SSW 20 0,0
16.06.2019 00:00:00 9,4 -3,9 4 2 WNW 20 0,0
15.06.2019 23:00:00 9,3 -3,3 5 3 NW 20 -
15.06.2019 22:00:00 9,8 -2,8 11 6 NNW 20 0,0
15.06.2019 21:00:00 11,9 -1,6 9 5 NW 20 0,0
15.06.2019 20:00:00 13,3 -0,7 11 6 NNW 30 -
15.06.2019 19:00:00 15,3 0,3 5 3 NW 20 0,0
15.06.2019 18:00:00 15,8 0,7 9 5 NW 20 0,0
15.06.2019 17:00:00 16,2 2,6 9 5 NW 30 -
15.06.2019 16:00:00 15,6 3,1 8 4 NNW 20 0,0
15.06.2019 15:00:00 13,3 3,4 8 4 NNW 20 0,0
15.06.2019 14:00:00 12,2 3,4 5 3 NW 30 -
15.06.2019 13:00:00 10,6 2,7 4 2 NW 20 0,0
15.06.2019 12:00:00 10,9 2,2 5 3 WNW 20 0,0
15.06.2019 11:00:00 10,1 2,0 5 3 WNW 25 -
15.06.2019 10:00:00 7,0 0,9 4 2 N 20 0,0
15.06.2019 09:00:00 6,0 0,7 4 2 NNE 20 0,0
15.06.2019 08:00:00 3,4 1,4 4 2 NE 5 -
15.06.2019 07:00:00 1,8 0,9 9 5 NNE 13 0,0
15.06.2019 06:00:00 2,3 1,3 9 5 N 9 0,0
15.06.2019 05:00:00 2,6 1,6 11 6 N 8 -
15.06.2019 04:00:00 2,7 1,2 9 5 N 19 0,0
15.06.2019 03:00:00 2,7 0,4 8 4 N 20 0,0
15.06.2019 02:00:00 3,5 0,2 11 6 NNW 20 -
15.06.2019 01:00:00 4,2 -0,2 11 6 NNW 20 0,0
15.06.2019 00:00:00 5,6 0,2 11 6 NNW 20 0,0
14.06.2019 23:00:00 6,4 0,1 11 6 NNW 20 -
14.06.2019 22:00:00 7,6 -2,2 8 4 WNW 20 0,0
14.06.2019 21:00:00 8,9 -3,0 16 9 SSW 20 0,0
14.06.2019 20:00:00 11,1 -2,7 18 10 SSW 30 -
14.06.2019 19:00:00 14,3 -2,6 13 7 SSW 20 0,0
14.06.2019 18:00:00 14,6 -2,4 22 12 SSW 20 0,0
14.06.2019 17:00:00 16,2 -1,4 15 8 S 30 -
14.06.2019 16:00:00 14,9 -2,1 21 11 SSW 20 0,0
14.06.2019 15:00:00 14,3 -2,6 18 10 SSW 20 0,0
14.06.2019 14:00:00 13,7 -3,1 22 12 SW 30 -
14.06.2019 13:00:00 13,1 -2,4 21 11 SW 20 0,0
14.06.2019 12:00:00 12,3 -2,0 24 13 SSW 19 0,0
14.06.2019 11:00:00 11,8 -4,0 16 9 SSW 30 -
14.06.2019 10:00:00 9,9 -1,8 18 10 S 20 0,0
14.06.2019 09:00:00 9,0 -2,6 22 12 SSW 20 0,0
14.06.2019 08:00:00 8,5 -3,4 26 14 SSW 20 -
14.06.2019 07:00:00 8,3 -5,2 26 14 SSW 20 0,0
14.06.2019 06:00:00 9,0 -4,2 26 14 SSW 20 0,0

tt = temperature
td = dewpoint
ff = wind speed
dd = wind direction
vv = visibility
rr = precipitation

Next stations